Time;durP1;ratioP1;P1;durP2;ratioP2;P2;SDS_P1;SDS_P2;PMS_P1;PMS_P2;Temp;Humidity;BMP_temperature;BMP_pressure;BME280_temperature;BME280_humidity;BME280_pressure;Samples;Min_cycle;Max_cycle;Signal;HPM_P1;HPM_P2
2022/09/15 00:01:07;;;;;;;3.58;1.05;;;;;;;;;;5072109;28;20071;-43
2022/09/15 00:03:32;;;;;;;3.20;1.80;;;;;;;;;;5072346;28;20028;-43
2022/09/15 00:05:58;;;;;;;4.82;1.77;;;;;;;;;;5072041;28;20016;-43
2022/09/15 00:08:23;;;;;;;2.10;0.93;;;;;;;;;;5070623;28;20440;-43
2022/09/15 00:10:51;;;;;;;2.03;1.83;;;;;;;;;;5072168;28;20099;-43
2022/09/15 00:13:17;;;;;;;7.35;2.67;;;;;;;;;;5071907;28;20028;-46
2022/09/15 00:15:42;;;;;;;1.90;1.27;;;;;;;;;;5071744;28;20360;-43
2022/09/15 00:18:07;;;;;;;5.28;1.52;;;;;;;;;;5071795;28;20036;-43
2022/09/15 00:20:33;;;;;;;2.92;1.92;;;;;;;;;;5071548;28;20067;-43
2022/09/15 00:22:58;;;;;;;6.97;2.45;;;;;;;;;;5071747;28;20039;-43
2022/09/15 00:25:23;;;;;;;4.25;2.67;;;;;;;;;;5071958;28;20052;-43
2022/09/15 00:27:49;;;;;;;1.58;1.02;;;;;;;;;;5071569;28;20471;-43
2022/09/15 00:30:14;;;;;;;3.63;1.67;;;;;;;;;;5071734;28;20024;-43
2022/09/15 00:32:40;;;;;;;3.28;1.73;;;;;;;;;;5071429;28;20031;-43
2022/09/15 00:35:05;;;;;;;1.30;1.20;;;;;;;;;;5071810;28;20036;-43
2022/09/15 00:37:32;;;;;;;4.22;1.33;;;;;;;;;;5071565;28;20029;-43
2022/09/15 00:39:57;;;;;;;6.63;2.67;;;;;;;;;;5071386;28;20020;-43
2022/09/15 00:42:23;;;;;;;2.85;1.65;;;;;;;;;;5071560;28;20032;-43
2022/09/15 00:44:50;;;;;;;8.00;1.33;;;;;;;;;;5071662;28;20099;-43
2022/09/15 00:47:17;;;;;;;1.90;1.20;;;;;;;;;;5071510;28;20024;-42
2022/09/15 00:49:44;;;;;;;6.53;1.92;;;;;;;;;;5071385;28;20417;-43
2022/09/15 00:52:12;;;;;;;2.22;1.60;;;;;;;;;;5071731;28;20024;-43
2022/09/15 00:54:41;;;;;;;2.85;1.55;;;;;;;;;;5071435;28;20029;-43
2022/09/15 00:57:10;;;;;;;6.68;1.40;;;;;;;;;;5071342;28;20028;-43
2022/09/15 00:59:37;;;;;;;3.08;1.25;;;;;;;;;;5069974;28;20035;-43
2022/09/15 01:02:17;;;;;;;3.40;1.60;;;;;;;;;;5071455;28;20032;-42
2022/09/15 01:04:43;;;;;;;2.83;1.42;;;;;;;;;;5071272;28;20097;-43
2022/09/15 01:07:11;;;;;;;2.25;1.30;;;;;;;;;;5071529;28;20021;-43
2022/09/15 01:09:38;;;;;;;9.77;1.65;;;;;;;;;;5069785;28;20475;-43
2022/09/15 01:12:04;;;;;;;1.75;1.13;;;;;;;;;;5071576;28;20036;-43
2022/09/15 01:14:29;;;;;;;5.45;1.48;;;;;;;;;;5070981;28;20130;-43
2022/09/15 01:16:54;;;;;;;5.15;1.30;;;;;;;;;;5071133;28;20070;-43
2022/09/15 01:19:43;;;;;;;1.52;1.23;;;;;;;;;;5071055;28;20127;-43
2022/09/15 01:22:21;;;;;;;9.63;1.52;;;;;;;;;;5069871;28;20093;-43
2022/09/15 01:24:47;;;;;;;7.78;1.73;;;;;;;;;;5071174;28;20028;-43
2022/09/15 01:27:12;;;;;;;8.68;1.60;;;;;;;;;;5071353;28;20013;-44
2022/09/15 01:29:50;;;;;;;1.60;1.50;;;;;;;;;;5071006;28;20033;-43
2022/09/15 01:35:28;;;;;;;2.88;1.58;;;;;;;;;;5071230;28;20049;-44
2022/09/15 01:37:59;;;;;;;3.25;1.50;;;;;;;;;;5070815;28;20059;-43
2022/09/15 01:40:27;;;;;;;3.13;1.83;;;;;;;;;;5071250;28;20032;-43
2022/09/15 01:42:54;;;;;;;3.45;2.00;;;;;;;;;;5071010;28;20091;-43
2022/09/15 01:45:29;;;;;;;4.15;1.55;;;;;;;;;;5071135;28;20496;-43
2022/09/15 01:47:56;;;;;;;5.93;1.80;;;;;;;;;;5070674;28;20058;-43
2022/09/15 01:50:27;;;;;;;2.10;1.70;;;;;;;;;;5070857;28;20059;-43
2022/09/15 01:52:56;;;;;;;2.38;1.70;;;;;;;;;;5070652;28;20413;-43
2022/09/15 01:55:24;;;;;;;4.68;1.67;;;;;;;;;;5070962;28;20028;-43
2022/09/15 01:57:49;;;;;;;10.07;2.15;;;;;;;;;;5070899;28;20020;-43
2022/09/15 02:00:15;;;;;;;5.35;1.73;;;;;;;;;;5070983;28;20113;-43
2022/09/15 02:03:11;;;;;;;7.88;2.60;;;;;;;;;;5069394;28;20025;-44
2022/09/15 02:05:40;;;;;;;1.90;1.67;;;;;;;;;;5068316;28;20090;-43
2022/09/15 02:08:34;;;;;;;4.35;1.65;;;;;;;;;;5070651;28;20024;-43
2022/09/15 02:11:07;;;;;;;3.30;1.50;;;;;;;;;;5064691;28;20040;-43
2022/09/15 02:13:37;;;;;;;4.53;1.83;;;;;;;;;;5073207;28;20383;-43
2022/09/15 02:16:03;;;;;;;3.55;1.33;;;;;;;;;;5074402;28;20051;-43
2022/09/15 02:18:38;;;;;;;3.50;1.88;;;;;;;;;;5074079;28;20488;-43
2022/09/15 02:21:09;;;;;;;4.05;1.90;;;;;;;;;;5073989;28;20052;-43
2022/09/15 02:23:37;;;;;;;6.28;1.98;;;;;;;;;;5074279;28;20115;-43
2022/09/15 02:26:12;;;;;;;6.03;1.60;;;;;;;;;;5073976;28;20391;-44
2022/09/15 02:28:39;;;;;;;3.13;1.38;;;;;;;;;;5073820;28;20024;-44
2022/09/15 02:31:07;;;;;;;4.47;1.85;;;;;;;;;;5073917;28;20510;-45
2022/09/15 02:33:36;;;;;;;1.33;1.23;;;;;;;;;;5074084;28;20040;-43
2022/09/15 02:36:02;;;;;;;2.90;1.63;;;;;;;;;;5073894;28;20356;-43
2022/09/15 02:38:32;;;;;;;7.40;1.48;;;;;;;;;;5073839;28;20028;-43
2022/09/15 02:40:57;;;;;;;6.80;1.55;;;;;;;;;;5073894;28;20033;-43
2022/09/15 02:43:23;;;;;;;1.45;1.35;;;;;;;;;;5073796;28;20490;-43
2022/09/15 02:45:48;;;;;;;3.22;1.02;;;;;;;;;;5073904;28;20020;-43
2022/09/15 02:48:14;;;;;;;3.65;2.30;;;;;;;;;;5073744;28;20646;-43
2022/09/15 02:50:40;;;;;;;2.97;1.48;;;;;;;;;;5073798;28;20012;-43
2022/09/15 02:53:05;;;;;;;2.45;1.60;;;;;;;;;;5073780;28;20368;-43
2022/09/15 02:55:31;;;;;;;2.15;1.67;;;;;;;;;;5073649;28;20029;-42
2022/09/15 02:57:56;;;;;;;7.80;2.58;;;;;;;;;;5073343;28;20029;-43
2022/09/15 03:00:22;;;;;;;4.72;1.73;;;;;;;;;;5073404;28;20024;-43
2022/09/15 03:02:49;;;;;;;2.55;1.30;;;;;;;;;;5073272;28;20070;-43
2022/09/15 03:05:16;;;;;;;5.05;1.42;;;;;;;;;;5073279;28;20536;-43
2022/09/15 03:07:42;;;;;;;1.48;1.38;;;;;;;;;;5073463;28;20024;-43
2022/09/15 03:10:08;;;;;;;5.13;1.08;;;;;;;;;;5073433;28;20382;-43
2022/09/15 03:12:37;;;;;;;1.10;1.02;;;;;;;;;;5073198;28;20032;-43
2022/09/15 03:15:03;;;;;;;2.83;1.20;;;;;;;;;;5073053;28;20427;-43
2022/09/15 03:17:32;;;;;;;1.55;1.02;;;;;;;;;;5072909;28;20079;-43
2022/09/15 03:19:57;;;;;;;2.58;1.50;;;;;;;;;;5072769;28;20040;-43
2022/09/15 03:22:23;;;;;;;4.22;3.10;;;;;;;;;;5073046;28;20035;-43
2022/09/15 03:24:48;;;;;;;5.80;1.67;;;;;;;;;;5071649;28;20450;-44
2022/09/15 03:27:14;;;;;;;6.40;1.50;;;;;;;;;;5072942;28;20032;-44
2022/09/15 03:29:39;;;;;;;6.10;1.92;;;;;;;;;;5072860;28;20052;-44
2022/09/15 03:32:04;;;;;;;4.85;1.50;;;;;;;;;;5073052;28;20024;-43
2022/09/15 03:34:30;;;;;;;4.55;1.50;;;;;;;;;;5072626;28;20054;-43
2022/09/15 03:36:56;;;;;;;2.47;1.38;;;;;;;;;;5072591;28;20108;-43
2022/09/15 03:39:21;;;;;;;1.50;1.40;;;;;;;;;;5072854;28;20489;-43
2022/09/15 03:41:46;;;;;;;4.55;1.67;;;;;;;;;;5072428;28;20028;-43
2022/09/15 03:44:12;;;;;;;3.17;1.50;;;;;;;;;;5072465;28;20024;-43
2022/09/15 03:46:37;;;;;;;3.80;1.48;;;;;;;;;;5071505;28;20029;-43
2022/09/15 03:49:03;;;;;;;7.30;1.38;;;;;;;;;;5072577;28;20508;-43
2022/09/15 03:51:28;;;;;;;1.40;1.02;;;;;;;;;;5072260;28;20039;-43
2022/09/15 03:53:54;;;;;;;1.40;1.30;;;;;;;;;;5072246;28;20082;-43
2022/09/15 03:56:24;;;;;;;5.43;1.60;;;;;;;;;;5072502;28;20156;-43
2022/09/15 03:58:50;;;;;;;3.78;1.38;;;;;;;;;;5072384;28;20025;-43
2022/09/15 04:01:17;;;;;;;2.38;1.20;;;;;;;;;;5072368;28;20047;-43
2022/09/15 04:03:42;;;;;;;1.23;1.13;;;;;;;;;;5072040;28;20455;-43
2022/09/15 04:06:08;;;;;;;6.53;1.90;;;;;;;;;;5072031;28;20036;-43
2022/09/15 04:08:33;;;;;;;3.40;1.05;;;;;;;;;;5071968;28;20013;-43
2022/09/15 04:11:02;;;;;;;3.28;0.75;;;;;;;;;;5072234;28;20032;-43
2022/09/15 04:13:28;;;;;;;1.50;1.00;;;;;;;;;;5072091;28;20073;-44
2022/09/15 04:15:58;;;;;;;3.28;2.28;;;;;;;;;;5071839;28;20040;-44
2022/09/15 04:18:23;;;;;;;4.63;1.15;;;;;;;;;;5072028;28;20028;-44
2022/09/15 04:20:49;;;;;;;0.77;0.77;;;;;;;;;;5071346;28;20469;-43
2022/09/15 04:23:14;;;;;;;5.20;1.20;;;;;;;;;;5071871;28;20509;-43
2022/09/15 04:25:39;;;;;;;5.05;1.10;;;;;;;;;;5071910;28;20025;-43
2022/09/15 04:28:05;;;;;;;12.52;2.13;;;;;;;;;;5071599;28;20047;-44
2022/09/15 04:30:30;;;;;;;2.33;1.27;;;;;;;;;;5071972;28;20117;-42
2022/09/15 04:32:56;;;;;;;2.05;1.25;;;;;;;;;;5071742;28;20048;-43
2022/09/15 04:35:21;;;;;;;4.30;1.15;;;;;;;;;;5071274;28;20044;-43
2022/09/15 04:37:47;;;;;;;1.98;1.17;;;;;;;;;;5071679;28;20102;-43
2022/09/15 04:40:12;;;;;;;6.05;1.00;;;;;;;;;;5071641;28;20117;-43
2022/09/15 04:42:37;;;;;;;1.00;0.90;;;;;;;;;;5071752;28;20028;-43
2022/09/15 04:45:03;;;;;;;1.55;0.70;;;;;;;;;;5071430;28;20040;-43
2022/09/15 04:47:28;;;;;;;0.52;0.43;;;;;;;;;;5071480;28;20020;-44
2022/09/15 04:49:54;;;;;;;3.05;0.60;;;;;;;;;;5070020;28;20025;-43
2022/09/15 04:52:20;;;;;;;2.00;0.77;;;;;;;;;;5071443;28;20070;-43
2022/09/15 04:54:46;;;;;;;2.42;1.25;;;;;;;;;;5071586;28;20387;-43
2022/09/15 04:57:11;;;;;;;4.32;1.00;;;;;;;;;;5071250;28;20020;-43
2022/09/15 04:59:37;;;;;;;2.00;1.25;;;;;;;;;;5071375;28;20478;-43
2022/09/15 05:02:02;;;;;;;6.95;0.98;;;;;;;;;;5071272;28;20023;-43
2022/09/15 05:04:28;;;;;;;4.22;1.05;;;;;;;;;;5071521;28;20040;-43
2022/09/15 05:06:54;;;;;;;2.45;0.80;;;;;;;;;;5071259;28;20091;-43
2022/09/15 05:09:19;;;;;;;1.02;0.65;;;;;;;;;;5071407;28;20067;-43
2022/09/15 05:11:45;;;;;;;2.17;0.65;;;;;;;;;;5071454;28;20029;-43
2022/09/15 05:14:10;;;;;;;2.83;0.85;;;;;;;;;;5071134;28;20051;-42
2022/09/15 05:16:36;;;;;;;2.72;1.02;;;;;;;;;;5071186;28;20394;-43
2022/09/15 05:19:04;;;;;;;2.38;0.95;;;;;;;;;;5071097;28;20478;-43
2022/09/15 05:21:29;;;;;;;1.10;0.70;;;;;;;;;;5069813;28;20407;-43
2022/09/15 05:23:55;;;;;;;3.03;1.08;;;;;;;;;;5071036;28;20028;-42
2022/09/15 05:26:22;;;;;;;1.52;1.40;;;;;;;;;;5071340;28;20033;-44
2022/09/15 05:28:48;;;;;;;0.88;0.77;;;;;;;;;;5070974;28;20554;-43
2022/09/15 05:31:18;;;;;;;5.55;1.27;;;;;;;;;;5071091;28;20467;-42
2022/09/15 05:33:44;;;;;;;4.75;0.80;;;;;;;;;;5070802;28;20082;-43
2022/09/15 05:36:10;;;;;;;1.45;0.80;;;;;;;;;;5071027;28;20138;-43
2022/09/15 05:38:36;;;;;;;0.90;0.80;;;;;;;;;;5070870;28;20028;-43
2022/09/15 05:41:03;;;;;;;1.30;0.85;;;;;;;;;;5070827;28;20025;-43
2022/09/15 05:43:32;;;;;;;5.65;1.17;;;;;;;;;;5070995;28;20024;-43
2022/09/15 05:45:58;;;;;;;3.90;0.98;;;;;;;;;;5070680;28;20016;-44
2022/09/15 05:48:23;;;;;;;1.23;0.93;;;;;;;;;;5073479;28;20032;-42
2022/09/15 05:50:50;;;;;;;3.05;1.08;;;;;;;;;;5074602;28;20028;-43
2022/09/15 05:53:15;;;;;;;2.38;1.00;;;;;;;;;;5074554;28;20471;-42
2022/09/15 05:55:41;;;;;;;12.60;0.98;;;;;;;;;;5074400;28;20074;-42
2022/09/15 05:58:07;;;;;;;2.35;0.93;;;;;;;;;;5074398;28;20032;-43
2022/09/15 06:00:33;;;;;;;2.78;0.90;;;;;;;;;;5073243;28;20024;-42
2022/09/15 06:02:58;;;;;;;2.92;0.80;;;;;;;;;;5074320;28;20094;-43
2022/09/15 06:05:24;;;;;;;3.35;0.90;;;;;;;;;;5074463;28;20099;-44
2022/09/15 06:07:53;;;;;;;4.15;1.25;;;;;;;;;;5074528;28;20025;-43
2022/09/15 06:10:19;;;;;;;4.10;1.17;;;;;;;;;;5074856;28;20020;-43
2022/09/15 06:12:44;;;;;;;2.10;0.93;;;;;;;;;;5074274;28;20386;-43
2022/09/15 06:15:11;;;;;;;3.22;0.90;;;;;;;;;;5074393;28;20089;-42
2022/09/15 06:17:37;;;;;;;0.60;0.40;;;;;;;;;;5074109;28;20119;-43
2022/09/15 06:20:04;;;;;;;2.42;0.88;;;;;;;;;;5072603;28;20123;-42
2022/09/15 06:22:30;;;;;;;1.30;0.50;;;;;;;;;;5072732;28;20028;-43
2022/09/15 06:24:55;;;;;;;1.00;0.88;;;;;;;;;;5074089;28;20051;-43
2022/09/15 06:27:21;;;;;;;2.17;0.80;;;;;;;;;;5073972;28;20032;-43
2022/09/15 06:29:46;;;;;;;0.57;0.57;;;;;;;;;;5073838;28;20062;-43
2022/09/15 06:32:12;;;;;;;2.45;0.85;;;;;;;;;;5074051;28;20032;-43
2022/09/15 06:34:37;;;;;;;7.10;1.30;;;;;;;;;;5073792;28;20016;-43
2022/09/15 06:37:02;;;;;;;5.60;1.58;;;;;;;;;;5073683;28;20028;-43
2022/09/15 06:39:28;;;;;;;1.95;0.50;;;;;;;;;;5074098;28;20020;-43
2022/09/15 06:41:53;;;;;;;10.63;3.15;;;;;;;;;;5073606;28;20446;-42
2022/09/15 06:44:19;;;;;;;0.77;0.60;;;;;;;;;;5074012;28;20025;-42
2022/09/15 06:46:45;;;;;;;0.93;0.60;;;;;;;;;;5073481;28;20376;-43
2022/09/15 06:49:11;;;;;;;1.92;0.95;;;;;;;;;;5073550;28;20025;-42
2022/09/15 06:51:36;;;;;;;0.55;0.55;;;;;;;;;;5073658;28;20060;-43
2022/09/15 06:54:02;;;;;;;5.15;1.27;;;;;;;;;;5073331;28;20020;-43
2022/09/15 06:56:28;;;;;;;1.02;0.70;;;;;;;;;;5073399;28;20072;-43
2022/09/15 06:58:54;;;;;;;0.70;0.70;;;;;;;;;;5073386;28;20044;-43
2022/09/15 07:01:21;;;;;;;2.80;0.88;;;;;;;;;;5073656;28;20101;-43
2022/09/15 07:03:47;;;;;;;1.25;0.70;;;;;;;;;;5073521;28;20406;-43
2022/09/15 07:06:13;;;;;;;5.40;1.08;;;;;;;;;;5073257;28;20032;-43
2022/09/15 07:08:39;;;;;;;3.28;1.17;;;;;;;;;;5073541;28;20025;-42
2022/09/15 07:11:04;;;;;;;0.93;0.88;;;;;;;;;;5073435;28;20074;-43
2022/09/15 07:13:30;;;;;;;2.13;0.65;;;;;;;;;;5073170;28;20032;-43
2022/09/15 07:15:56;;;;;;;0.52;0.40;;;;;;;;;;5072068;28;20072;-44
2022/09/15 07:18:22;;;;;;;2.53;0.80;;;;;;;;;;5073251;28;20017;-43
2022/09/15 07:20:47;;;;;;;2.78;1.05;;;;;;;;;;5072889;28;20102;-43
2022/09/15 07:23:13;;;;;;;3.15;0.70;;;;;;;;;;5071754;28;20036;-43
2022/09/15 07:25:44;;;;;;;1.73;0.73;;;;;;;;;;5072825;28;20674;-43
2022/09/15 07:28:10;;;;;;;3.85;0.90;;;;;;;;;;5073155;28;20509;-42
2022/09/15 07:30:36;;;;;;;1.17;0.80;;;;;;;;;;5072795;28;20078;-43
2022/09/15 07:33:01;;;;;;;9.57;0.90;;;;;;;;;;5072631;28;20021;-42
2022/09/15 07:35:26;;;;;;;0.20;0.20;;;;;;;;;;5072768;28;20033;-44
2022/09/15 07:37:52;;;;;;;6.70;1.02;;;;;;;;;;5071191;28;20020;-42
2022/09/15 07:40:17;;;;;;;1.52;0.82;;;;;;;;;;5072884;28;20039;-43
2022/09/15 07:42:43;;;;;;;7.32;1.17;;;;;;;;;;5072788;28;20477;-42
2022/09/15 07:45:10;;;;;;;0.38;0.38;;;;;;;;;;5072543;28;20035;-43
2022/09/15 07:47:35;;;;;;;6.82;0.68;;;;;;;;;;5072630;28;20017;-42
2022/09/15 07:50:01;;;;;;;6.43;2.40;;;;;;;;;;5072298;28;20485;-43
2022/09/15 07:52:26;;;;;;;7.35;1.30;;;;;;;;;;5072459;28;20028;-43
2022/09/15 07:54:52;;;;;;;3.58;1.10;;;;;;;;;;5072121;28;20043;-42
2022/09/15 07:57:18;;;;;;;1.15;1.05;;;;;;;;;;5072512;28;20473;-43
2022/09/15 07:59:43;;;;;;;5.47;1.40;;;;;;;;;;5072242;28;20471;-43
2022/09/15 08:02:19;;;;;;;1.75;1.20;;;;;;;;;;5072305;28;20024;-42
2022/09/15 08:04:44;;;;;;;5.82;0.95;;;;;;;;;;5072331;28;20028;-43
2022/09/15 08:07:10;;;;;;;1.38;1.17;;;;;;;;;;5072141;28;20021;-43
2022/09/15 08:09:37;;;;;;;0.73;0.73;;;;;;;;;;5071609;28;20025;-43
2022/09/15 08:12:02;;;;;;;1.17;0.82;;;;;;;;;;5071846;28;20016;-42
2022/09/15 08:14:30;;;;;;;1.05;0.80;;;;;;;;;;5071795;28;20035;-43
2022/09/15 08:16:59;;;;;;;0.52;0.52;;;;;;;;;;5071910;28;20024;-46
2022/09/15 08:19:28;;;;;;;2.10;1.15;;;;;;;;;;5072146;28;20025;-43
2022/09/15 08:21:54;;;;;;;3.33;1.17;;;;;;;;;;5071618;28;20044;-42
2022/09/15 08:24:21;;;;;;;0.90;0.88;;;;;;;;;;5071853;28;20031;-43
2022/09/15 08:26:47;;;;;;;1.35;1.20;;;;;;;;;;5071621;28;20158;-44
2022/09/15 08:29:12;;;;;;;3.15;1.40;;;;;;;;;;5071706;28;20115;-43
2022/09/15 08:31:38;;;;;;;3.13;1.23;;;;;;;;;;5071614;28;20036;-42
2022/09/15 08:34:05;;;;;;;1.33;0.82;;;;;;;;;;5071656;28;20017;-42
2022/09/15 08:36:34;;;;;;;2.15;1.20;;;;;;;;;;5071416;28;20032;-43
2022/09/15 08:39:01;;;;;;;1.55;1.05;;;;;;;;;;5071732;28;20024;-42
2022/09/15 08:41:30;;;;;;;7.78;1.95;;;;;;;;;;5070300;28;20029;-43
2022/09/15 08:44:15;;;;;;;1.92;0.70;;;;;;;;;;5071319;28;20032;-43
2022/09/15 08:46:48;;;;;;;1.20;0.75;;;;;;;;;;5071528;28;20422;-44
2022/09/15 08:49:26;;;;;;;2.63;1.48;;;;;;;;;;5071738;28;20028;-43
2022/09/15 08:51:52;;;;;;;6.13;1.05;;;;;;;;;;5070038;28;20036;-43
2022/09/15 08:54:22;;;;;;;0.50;0.40;;;;;;;;;;5071398;28;20486;-45
2022/09/15 08:56:49;;;;;;;2.20;0.88;;;;;;;;;;5071255;28;20044;-43
2022/09/15 08:59:15;;;;;;;2.42;1.20;;;;;;;;;;5071233;28;20099;-43
2022/09/15 09:01:53;;;;;;;1.73;0.60;;;;;;;;;;5071295;28;20044;-43
2022/09/15 09:04:18;;;;;;;0.55;0.55;;;;;;;;;;5071172;28;20495;-42
2022/09/15 09:06:56;;;;;;;9.63;0.60;;;;;;;;;;5071156;28;20020;-43
2022/09/15 09:09:33;;;;;;;0.32;0.32;;;;;;;;;;5069861;28;20387;-43
2022/09/15 09:11:59;;;;;;;1.33;0.63;;;;;;;;;;5071390;28;20467;-43
2022/09/15 09:14:43;;;;;;;1.35;0.90;;;;;;;;;;5071049;28;20036;-43
2022/09/15 09:17:08;;;;;;;4.63;1.48;;;;;;;;;;5071104;28;20029;-43
2022/09/15 09:19:41;;;;;;;3.97;1.45;;;;;;;;;;5071027;28;20586;-43
2022/09/15 09:22:19;;;;;;;3.60;0.77;;;;;;;;;;5071635;28;20049;-43
2022/09/15 09:24:52;;;;;;;0.22;0.22;;;;;;;;;;5075409;28;20116;-43
2022/09/15 09:27:26;;;;;;;3.17;1.27;;;;;;;;;;5075411;28;20037;-43
2022/09/15 09:29:56;;;;;;;0.20;0.20;;;;;;;;;;5075072;28;20025;-43
2022/09/15 09:32:26;;;;;;;3.45;1.80;;;;;;;;;;5075172;28;20029;-43
2022/09/15 09:35:00;;;;;;;0.47;0.47;;;;;;;;;;5074803;28;20040;-43
2022/09/15 09:37:26;;;;;;;1.70;1.13;;;;;;;;;;5073704;28;20489;-43
2022/09/15 09:39:52;;;;;;;0.52;0.52;;;;;;;;;;5074754;28;20055;-43
2022/09/15 09:42:18;;;;;;;3.33;1.35;;;;;;;;;;5075221;28;20063;-43
2022/09/15 09:44:44;;;;;;;2.50;1.67;;;;;;;;;;5075130;28;20073;-43
2022/09/15 09:47:11;;;;;;;3.78;1.98;;;;;;;;;;5074741;28;20033;-43
2022/09/15 09:49:45;;;;;;;5.35;1.48;;;;;;;;;;5075035;28;20104;-42
2022/09/15 09:52:11;;;;;;;1.20;0.88;;;;;;;;;;5074773;28;20044;-43
2022/09/15 09:54:37;;;;;;;3.70;1.58;;;;;;;;;;5074773;28;20012;-43
2022/09/15 09:57:26;;;;;;;9.35;1.90;;;;;;;;;;5074408;28;20037;-42
2022/09/15 09:59:53;;;;;;;3.90;1.42;;;;;;;;;;5074758;28;20045;-43
2022/09/15 10:02:23;;;;;;;7.25;1.73;;;;;;;;;;5074341;28;20028;-43
2022/09/15 10:05:10;;;;;;;2.75;1.23;;;;;;;;;;5074651;28;20029;-42
2022/09/15 10:07:42;;;;;;;3.53;1.70;;;;;;;;;;5073823;28;20037;-43
2022/09/15 10:10:17;;;;;;;3.15;1.75;;;;;;;;;;5074175;28;20639;-43
2022/09/15 10:12:43;;;;;;;2.50;1.02;;;;;;;;;;5074598;28;20033;-43
2022/09/15 10:15:20;;;;;;;7.45;2.22;;;;;;;;;;5074049;28;20467;-43
2022/09/15 10:17:48;;;;;;;5.03;1.10;;;;;;;;;;5074085;28;20032;-43
2022/09/15 10:20:31;;;;;;;7.30;1.40;;;;;;;;;;5074232;28;20041;-43
2022/09/15 10:22:56;;;;;;;;;;;;;;;;;;5074826;28;20036;-43
2022/09/15 10:25:21;;;;;;;8.93;2.08;;;;;;;;;;5074119;28;19975;-43
2022/09/15 10:28:06;;;;;;;4.78;2.05;;;;;;;;;;5072960;28;20727;-43
2022/09/15 10:30:31;;;;;;;7.85;1.98;;;;;;;;;;5074162;28;20025;-43
2022/09/15 10:33:16;;;;;;;7.80;1.77;;;;;;;;;;5073607;28;20016;-43
2022/09/15 10:35:42;;;;;;;4.00;1.88;;;;;;;;;;5073858;28;20032;-43
2022/09/15 10:38:10;;;;;;;4.95;2.13;;;;;;;;;;5074005;28;20028;-43
2022/09/15 10:40:41;;;;;;;5.70;1.60;;;;;;;;;;5073758;28;20090;-43
2022/09/15 10:43:10;;;;;;;6.97;2.65;;;;;;;;;;5074016;28;20582;-43
2022/09/15 10:45:37;;;;;;;8.93;1.58;;;;;;;;;;5073685;28;20119;-43
2022/09/15 10:48:21;;;;;;;5.68;2.05;;;;;;;;;;5073749;28;20100;-43
2022/09/15 10:50:55;;;;;;;1.60;1.50;;;;;;;;;;5073551;28;20620;-43
2022/09/15 10:53:20;;;;;;;2.08;1.80;;;;;;;;;;5073541;28;20039;-43
2022/09/15 10:55:49;;;;;;;4.88;2.40;;;;;;;;;;5073508;28;20029;-43
2022/09/15 10:58:18;;;;;;;4.47;2.13;;;;;;;;;;5073344;28;20028;-43
2022/09/15 11:00:58;;;;;;;9.25;2.05;;;;;;;;;;5073462;28;20031;-43
2022/09/15 11:03:50;;;;;;;6.18;2.13;;;;;;;;;;5072113;28;20032;-43
2022/09/15 11:06:25;;;;;;;6.10;1.88;;;;;;;;;;5072276;28;20036;-43
2022/09/15 11:09:10;;;;;;;2.88;2.28;;;;;;;;;;5072293;28;20465;-43
2022/09/15 11:11:51;;;;;;;1.63;1.25;;;;;;;;;;5073488;28;20036;-42
2022/09/15 11:14:20;;;;;;;3.88;1.17;;;;;;;;;;5073123;28;20074;-43
2022/09/15 11:16:51;;;;;;;1.92;1.38;;;;;;;;;;5071815;28;20040;-43
2022/09/15 11:19:21;;;;;;;1.95;1.75;;;;;;;;;;5073082;28;20024;-43
2022/09/15 11:22:07;;;;;;;13.80;2.25;;;;;;;;;;5072687;28;20083;-43
2022/09/15 11:24:39;;;;;;;4.57;1.50;;;;;;;;;;5072613;28;20041;-43
2022/09/15 11:27:11;;;;;;;8.40;2.40;;;;;;;;;;5072845;28;20063;-44
2022/09/15 11:29:45;;;;;;;6.85;2.80;;;;;;;;;;5073068;28;20281;-43
2022/09/15 11:32:15;;;;;;;3.30;1.77;;;;;;;;;;5072985;28;20063;-42
2022/09/15 11:34:53;;;;;;;5.65;1.50;;;;;;;;;;5072602;28;20016;-43
2022/09/15 11:37:39;;;;;;;2.40;1.52;;;;;;;;;;5072767;28;20029;-43
2022/09/15 11:40:05;;;;;;;4.82;1.40;;;;;;;;;;5072479;28;20035;-43
2022/09/15 11:42:38;;;;;;;1.58;1.25;;;;;;;;;;5072891;28;20029;-42
2022/09/15 11:45:09;;;;;;;4.00;1.35;;;;;;;;;;5071617;28;20455;-43
2022/09/15 11:47:56;;;;;;;3.72;1.30;;;;;;;;;;5072772;28;20430;-42
2022/09/15 11:50:27;;;;;;;6.85;2.08;;;;;;;;;;5071302;28;20036;-46
2022/09/15 11:53:02;;;;;;;0.95;0.73;;;;;;;;;;5072310;28;20069;-42
2022/09/15 11:55:46;;;;;;;1.77;1.15;;;;;;;;;;5072310;28;20052;-42
2022/09/15 11:58:17;;;;;;;;;;;;;;;;;;5072711;28;20039;-42
2022/09/15 12:00:58;;;;;;;7.32;3.08;;;;;;;;;;5072392;28;19934;-43
2022/09/15 12:03:33;;;;;;;2.90;1.85;;;;;;;;;;5072345;28;20389;-42
2022/09/15 12:06:17;;;;;;;6.95;2.15;;;;;;;;;;5072053;28;20036;-43
2022/09/15 12:08:53;;;;;;;5.97;2.03;;;;;;;;;;5072355;28;20036;-42
2022/09/15 12:11:25;;;;;;;6.45;2.13;;;;;;;;;;5071936;28;20529;-43
2022/09/15 12:13:52;;;;;;;3.00;1.48;;;;;;;;;;5072001;28;20032;-43
2022/09/15 12:16:22;;;;;;;5.57;1.58;;;;;;;;;;5071829;28;20106;-43
2022/09/15 12:18:54;;;;;;;4.22;1.45;;;;;;;;;;5072101;28;20036;-43
2022/09/15 12:21:32;;;;;;;3.92;1.35;;;;;;;;;;5071677;28;20052;-42
2022/09/15 12:24:01;;;;;;;2.97;1.85;;;;;;;;;;5071778;28;20119;-43
2022/09/15 12:26:32;;;;;;;1.67;1.58;;;;;;;;;;5071761;28;20016;-43
2022/09/15 12:29:02;;;;;;;3.10;1.52;;;;;;;;;;5071757;28;20364;-42
2022/09/15 12:31:29;;;;;;;2.85;1.25;;;;;;;;;;5071500;28;20036;-42
2022/09/15 12:34:01;;;;;;;3.08;1.98;;;;;;;;;;5071479;28;20037;-43
2022/09/15 12:36:30;;;;;;;1.25;1.15;;;;;;;;;;5071842;28;20037;-42
2022/09/15 12:39:00;;;;;;;2.65;1.80;;;;;;;;;;5071826;28;20052;-42
2022/09/15 12:41:33;;;;;;;6.88;4.03;;;;;;;;;;5071903;28;20584;-42
2022/09/15 12:44:13;;;;;;;3.35;1.58;;;;;;;;;;5071725;28;20372;-42
2022/09/15 12:46:42;;;;;;;4.32;1.30;;;;;;;;;;5071405;28;20483;-43
2022/09/15 12:49:16;;;;;;;1.85;1.35;;;;;;;;;;5071430;28;20016;-44
2022/09/15 12:51:49;;;;;;;2.85;2.22;;;;;;;;;;5071511;28;20032;-43
2022/09/15 12:54:22;;;;;;;3.05;0.90;;;;;;;;;;5071302;28;20024;-42
2022/09/15 12:56:51;;;;;;;0.98;0.98;;;;;;;;;;5071032;28;20086;-42
2022/09/15 12:59:21;;;;;;;7.65;2.03;;;;;;;;;;5071373;28;20024;-42
2022/09/15 13:01:47;;;;;;;5.15;1.80;;;;;;;;;;5070079;28;20031;-42
2022/09/15 13:04:25;;;;;;;4.45;2.30;;;;;;;;;;5071299;28;20102;-42
2022/09/15 13:07:09;;;;;;;7.00;2.08;;;;;;;;;;5071211;28;20038;-43
2022/09/15 13:09:55;;;;;;;6.88;2.17;;;;;;;;;;5071242;28;20395;-43
2022/09/15 13:12:23;;;;;;;4.03;1.90;;;;;;;;;;5071387;28;20020;-42
2022/09/15 13:14:53;;;;;;;4.25;2.33;;;;;;;;;;5071040;28;20050;-42
2022/09/15 13:17:24;;;;;;;0.75;0.57;;;;;;;;;;5071204;28;20071;-42
2022/09/15 13:19:53;;;;;;;0.10;0.10;;;;;;;;;;5070873;28;20388;-43
2022/09/15 13:22:26;;;;;;;2.65;2.10;;;;;;;;;;5071012;28;20037;-43
2022/09/15 13:25:05;;;;;;;1.17;1.08;;;;;;;;;;5071070;28;20462;-43
2022/09/15 13:27:35;;;;;;;4.63;2.10;;;;;;;;;;5071014;28;20119;-43
2022/09/15 13:30:07;;;;;;;5.90;2.22;;;;;;;;;;5071063;28;20081;-43
2022/09/15 13:32:40;;;;;;;6.47;2.10;;;;;;;;;;5071031;28;20028;-43
2022/09/15 13:35:22;;;;;;;2.47;1.10;;;;;;;;;;5070905;28;20028;-43
2022/09/15 13:37:56;;;;;;;9.13;2.13;;;;;;;;;;5070907;28;20446;-43
2022/09/15 13:40:42;;;;;;;6.95;3.30;;;;;;;;;;5070976;28;20029;-43
2022/09/15 13:43:20;;;;;;;3.22;1.92;;;;;;;;;;5070748;28;20568;-43
2022/09/15 13:45:49;;;;;;;3.97;2.30;;;;;;;;;;5070939;28;20064;-43
2022/09/15 13:48:27;;;;;;;18.25;1.80;;;;;;;;;;5070927;28;20093;-43
2022/09/15 13:51:01;;;;;;;4.22;1.52;;;;;;;;;;5070645;28;20078;-43
2022/09/15 13:53:43;;;;;;;5.40;1.77;;;;;;;;;;5070928;28;20037;-43
2022/09/15 13:56:17;;;;;;;3.28;2.33;;;;;;;;;;5070609;28;20115;-43
2022/09/15 13:58:44;;;;;;;2.78;2.28;;;;;;;;;;5070794;28;20024;-44
2022/09/15 14:01:11;;;;;;;3.53;1.80;;;;;;;;;;5070629;28;20028;-43
2022/09/15 14:03:42;;;;;;;3.53;1.63;;;;;;;;;;5070842;28;20021;-43
2022/09/15 14:06:13;;;;;;;3.75;2.67;;;;;;;;;;5070636;28;20127;-43
2022/09/15 14:08:40;;;;;;;7.90;2.30;;;;;;;;;;5072361;28;20028;-43
2022/09/15 14:11:09;;;;;;;7.22;2.13;;;;;;;;;;5074241;28;20029;-43
2022/09/15 14:13:35;;;;;;;4.93;2.58;;;;;;;;;;5074238;28;20029;-43
2022/09/15 14:16:01;;;;;;;8.13;2.85;;;;;;;;;;5074191;28;20510;-43
2022/09/15 14:18:27;;;;;;;8.38;2.67;;;;;;;;;;5074349;28;20020;-43
2022/09/15 14:21:00;;;;;;;2.65;1.85;;;;;;;;;;5073990;28;20055;-43
2022/09/15 14:23:26;;;;;;;4.53;1.75;;;;;;;;;;5074133;28;20380;-43
2022/09/15 14:25:52;;;;;;;5.00;1.48;;;;;;;;;;5073957;28;20073;-43
2022/09/15 14:28:19;;;;;;;0.43;0.43;;;;;;;;;;5074099;28;20024;-43
2022/09/15 14:30:46;;;;;;;6.88;1.95;;;;;;;;;;5074222;28;20742;-43
2022/09/15 14:33:15;;;;;;;9.93;2.05;;;;;;;;;;5073910;28;20459;-43
2022/09/15 14:35:40;;;;;;;8.65;1.58;;;;;;;;;;5073826;28;20609;-43
2022/09/15 14:38:18;;;;;;;7.38;2.17;;;;;;;;;;5074077;28;20068;-43
2022/09/15 14:40:43;;;;;;;9.23;2.65;;;;;;;;;;5072883;28;20021;-43
2022/09/15 14:43:28;;;;;;;3.55;1.52;;;;;;;;;;5074043;28;20047;-43
2022/09/15 14:45:53;;;;;;;5.95;1.65;;;;;;;;;;5073598;28;20505;-43
2022/09/15 14:48:25;;;;;;;6.68;2.05;;;;;;;;;;5073659;28;20020;-43
2022/09/15 14:51:00;;;;;;;5.83;1.37;;;;;;;;;;5073582;28;20040;-44
2022/09/15 14:53:27;;;;;;;7.38;2.55;;;;;;;;;;5073593;28;20025;-43
2022/09/15 14:55:58;;;;;;;8.50;2.13;;;;;;;;;;5073387;28;20028;-44
2022/09/15 14:58:24;;;;;;;6.75;1.40;;;;;;;;;;5073408;28;20060;-43